sensor_id;sensor_type;location;lat;lon;timestamp;temperature;humidity
15888;DHT22;56032;51.324;12.376;2023-02-01T00:01:29;4.70;99.90
15888;DHT22;56032;51.324;12.376;2023-02-01T00:03:58;4.70;99.90
15888;DHT22;56032;51.324;12.376;2023-02-01T00:06:27;4.70;99.90
15888;DHT22;56032;51.324;12.376;2023-02-01T00:08:56;4.70;99.90
15888;DHT22;56032;51.324;12.376;2023-02-01T00:11:26;4.70;99.90
15888;DHT22;56032;51.324;12.376;2023-02-01T00:13:56;4.70;99.90
15888;DHT22;56032;51.324;12.376;2023-02-01T00:16:25;4.90;99.90
15888;DHT22;56032;51.324;12.376;2023-02-01T00:18:57;4.70;99.90
15888;DHT22;56032;51.324;12.376;2023-02-01T00:21:26;4.70;99.90
15888;DHT22;56032;51.324;12.376;2023-02-01T00:23:55;4.70;99.90
15888;DHT22;56032;51.324;12.376;2023-02-01T00:26:25;4.70;99.90
15888;DHT22;56032;51.324;12.376;2023-02-01T00:28:55;4.70;99.90
15888;DHT22;56032;51.324;12.376;2023-02-01T00:31:24;4.70;99.90
15888;DHT22;56032;51.324;12.376;2023-02-01T00:33:57;4.70;99.90
15888;DHT22;56032;51.324;12.376;2023-02-01T00:36:26;4.70;99.90
15888;DHT22;56032;51.324;12.376;2023-02-01T00:38:55;4.70;99.90
15888;DHT22;56032;51.324;12.376;2023-02-01T00:41:24;4.80;99.90
15888;DHT22;56032;51.324;12.376;2023-02-01T00:43:53;4.80;99.90
15888;DHT22;56032;51.324;12.376;2023-02-01T00:46:21;4.80;99.90
15888;DHT22;56032;51.324;12.376;2023-02-01T00:48:50;4.80;99.90
15888;DHT22;56032;51.324;12.376;2023-02-01T00:51:21;4.80;99.90
15888;DHT22;56032;51.324;12.376;2023-02-01T00:53:51;4.90;99.90
15888;DHT22;56032;51.324;12.376;2023-02-01T00:56:19;4.90;99.90
15888;DHT22;56032;51.324;12.376;2023-02-01T00:58:48;4.90;99.90
15888;DHT22;56032;51.324;12.376;2023-02-01T01:01:19;4.90;99.90
15888;DHT22;56032;51.324;12.376;2023-02-01T01:03:49;4.90;99.90
15888;DHT22;56032;51.324;12.376;2023-02-01T01:06:21;4.80;99.90
15888;DHT22;56032;51.324;12.376;2023-02-01T01:08:51;4.70;99.90
15888;DHT22;56032;51.324;12.376;2023-02-01T01:11:21;4.70;99.90
15888;DHT22;56032;51.324;12.376;2023-02-01T01:13:52;4.70;99.90
15888;DHT22;56032;51.324;12.376;2023-02-01T01:16:21;4.60;99.90
15888;DHT22;56032;51.324;12.376;2023-02-01T01:18:50;4.70;99.90
15888;DHT22;56032;51.324;12.376;2023-02-01T01:21:21;4.60;99.90
15888;DHT22;56032;51.324;12.376;2023-02-01T01:23:50;4.60;99.90
15888;DHT22;56032;51.324;12.376;2023-02-01T01:26:20;4.60;99.90
15888;DHT22;56032;51.324;12.376;2023-02-01T01:28:49;4.60;99.90
15888;DHT22;56032;51.324;12.376;2023-02-01T01:31:19;4.60;99.90
15888;DHT22;56032;51.324;12.376;2023-02-01T01:33:48;4.70;99.90
15888;DHT22;56032;51.324;12.376;2023-02-01T01:36:18;4.70;99.90
15888;DHT22;56032;51.324;12.376;2023-02-01T01:38:48;4.70;99.90
15888;DHT22;56032;51.324;12.376;2023-02-01T01:41:17;4.70;99.90
15888;DHT22;56032;51.324;12.376;2023-02-01T01:43:48;4.70;99.90
15888;DHT22;56032;51.324;12.376;2023-02-01T01:46:17;4.70;99.90
15888;DHT22;56032;51.324;12.376;2023-02-01T01:48:48;4.60;99.90
15888;DHT22;56032;51.324;12.376;2023-02-01T01:51:19;4.60;99.90
15888;DHT22;56032;51.324;12.376;2023-02-01T01:53:54;4.60;99.90
15888;DHT22;56032;51.324;12.376;2023-02-01T01:56:23;4.60;99.90
15888;DHT22;56032;51.324;12.376;2023-02-01T01:58:52;4.60;99.90
15888;DHT22;56032;51.324;12.376;2023-02-01T02:01:22;4.50;99.90
15888;DHT22;56032;51.324;12.376;2023-02-01T02:03:50;4.50;99.90
15888;DHT22;56032;51.324;12.376;2023-02-01T02:06:22;4.50;99.90
15888;DHT22;56032;51.324;12.376;2023-02-01T02:08:56;4.50;99.90
15888;DHT22;56032;51.324;12.376;2023-02-01T02:11:24;4.40;99.90
15888;DHT22;56032;51.324;12.376;2023-02-01T02:13:53;4.50;99.90
15888;DHT22;56032;51.324;12.376;2023-02-01T02:19:22;4.50;99.90
15888;DHT22;56032;51.324;12.376;2023-02-01T02:22:04;4.50;99.90
15888;DHT22;56032;51.324;12.376;2023-02-01T02:24:39;4.60;99.90
15888;DHT22;56032;51.324;12.376;2023-02-01T02:27:18;4.60;99.90
15888;DHT22;56032;51.324;12.376;2023-02-01T02:30:07;4.60;99.90
15888;DHT22;56032;51.324;12.376;2023-02-01T02:32:53;4.60;99.90
15888;DHT22;56032;51.324;12.376;2023-02-01T02:35:32;4.70;99.90
15888;DHT22;56032;51.324;12.376;2023-02-01T02:38:09;4.70;99.90
15888;DHT22;56032;51.324;12.376;2023-02-01T02:40:42;4.80;99.90
15888;DHT22;56032;51.324;12.376;2023-02-01T02:43:16;4.80;99.90
15888;DHT22;56032;51.324;12.376;2023-02-01T02:46:07;4.80;99.90
15888;DHT22;56032;51.324;12.376;2023-02-01T02:48:59;4.80;99.90
15888;DHT22;56032;51.324;12.376;2023-02-01T02:51:32;4.90;99.90
15888;DHT22;56032;51.324;12.376;2023-02-01T02:54:21;4.90;99.90
15888;DHT22;56032;51.324;12.376;2023-02-01T02:57:09;4.90;99.90
15888;DHT22;56032;51.324;12.376;2023-02-01T02:59:57;4.90;99.90
15888;DHT22;56032;51.324;12.376;2023-02-01T03:02:44;4.80;99.90
15888;DHT22;56032;51.324;12.376;2023-02-01T03:05:34;4.80;99.90
15888;DHT22;56032;51.324;12.376;2023-02-01T03:08:08;4.80;99.90
15888;DHT22;56032;51.324;12.376;2023-02-01T03:10:41;4.80;99.90
15888;DHT22;56032;51.324;12.376;2023-02-01T03:13:12;4.80;99.90
15888;DHT22;56032;51.324;12.376;2023-02-01T03:15:44;4.90;99.90
15888;DHT22;56032;51.324;12.376;2023-02-01T03:18:15;4.90;99.90
15888;DHT22;56032;51.324;12.376;2023-02-01T03:20:46;4.90;99.90
15888;DHT22;56032;51.324;12.376;2023-02-01T03:23:23;4.90;99.90
15888;DHT22;56032;51.324;12.376;2023-02-01T03:25:53;4.90;99.90
15888;DHT22;56032;51.324;12.376;2023-02-01T03:28:24;4.90;99.90
15888;DHT22;56032;51.324;12.376;2023-02-01T03:30:54;4.90;99.90
15888;DHT22;56032;51.324;12.376;2023-02-01T03:33:23;5.00;99.90
15888;DHT22;56032;51.324;12.376;2023-02-01T03:35:58;5.00;99.90
15888;DHT22;56032;51.324;12.376;2023-02-01T03:38:31;5.00;99.90
15888;DHT22;56032;51.324;12.376;2023-02-01T03:41:03;5.00;99.90
15888;DHT22;56032;51.324;12.376;2023-02-01T03:43:44;5.00;99.90
15888;DHT22;56032;51.324;12.376;2023-02-01T03:46:17;5.00;99.90
15888;DHT22;56032;51.324;12.376;2023-02-01T03:48:47;4.90;99.90
15888;DHT22;56032;51.324;12.376;2023-02-01T03:51:16;5.00;99.90
15888;DHT22;56032;51.324;12.376;2023-02-01T03:53:49;5.00;99.90
15888;DHT22;56032;51.324;12.376;2023-02-01T03:56:20;5.00;99.90
15888;DHT22;56032;51.324;12.376;2023-02-01T03:58:50;4.90;99.90
15888;DHT22;56032;51.324;12.376;2023-02-01T04:01:28;4.90;99.90
15888;DHT22;56032;51.324;12.376;2023-02-01T04:03:57;4.90;99.90
15888;DHT22;56032;51.324;12.376;2023-02-01T04:06:26;4.90;99.90
15888;DHT22;56032;51.324;12.376;2023-02-01T04:08:56;4.90;99.90
15888;DHT22;56032;51.324;12.376;2023-02-01T04:11:24;4.90;99.90
15888;DHT22;56032;51.324;12.376;2023-02-01T04:13:54;4.90;99.90
15888;DHT22;56032;51.324;12.376;2023-02-01T04:16:22;4.90;99.90
15888;DHT22;56032;51.324;12.376;2023-02-01T04:18:51;4.90;99.90
15888;DHT22;56032;51.324;12.376;2023-02-01T04:21:19;4.90;99.90
15888;DHT22;56032;51.324;12.376;2023-02-01T04:23:48;4.90;99.90
15888;DHT22;56032;51.324;12.376;2023-02-01T04:26:19;4.90;99.90
15888;DHT22;56032;51.324;12.376;2023-02-01T04:28:48;4.90;99.90
15888;DHT22;56032;51.324;12.376;2023-02-01T04:31:18;4.90;99.90
15888;DHT22;56032;51.324;12.376;2023-02-01T04:33:52;4.90;99.90
15888;DHT22;56032;51.324;12.376;2023-02-01T04:36:21;4.90;99.90
15888;DHT22;56032;51.324;12.376;2023-02-01T04:38:50;4.90;99.90
15888;DHT22;56032;51.324;12.376;2023-02-01T04:41:21;4.90;99.90
15888;DHT22;56032;51.324;12.376;2023-02-01T04:43:52;4.90;99.90
15888;DHT22;56032;51.324;12.376;2023-02-01T04:46:21;4.90;99.90
15888;DHT22;56032;51.324;12.376;2023-02-01T04:48:51;4.90;99.90
15888;DHT22;56032;51.324;12.376;2023-02-01T04:51:19;5.00;99.90
15888;DHT22;56032;51.324;12.376;2023-02-01T04:53:48;5.00;99.90
15888;DHT22;56032;51.324;12.376;2023-02-01T04:56:17;5.00;99.90
15888;DHT22;56032;51.324;12.376;2023-02-01T04:58:47;5.00;99.90
15888;DHT22;56032;51.324;12.376;2023-02-01T05:01:15;5.00;99.90
15888;DHT22;56032;51.324;12.376;2023-02-01T05:03:44;5.00;99.90
15888;DHT22;56032;51.324;12.376;2023-02-01T05:06:13;5.00;99.90
15888;DHT22;56032;51.324;12.376;2023-02-01T05:08:41;5.00;99.90
15888;DHT22;56032;51.324;12.376;2023-02-01T05:11:10;5.00;99.90
15888;DHT22;56032;51.324;12.376;2023-02-01T05:14:00;5.00;99.90
15888;DHT22;56032;51.324;12.376;2023-02-01T05:16:28;5.00;99.90
15888;DHT22;56032;51.324;12.376;2023-02-01T05:18:57;5.00;99.90
15888;DHT22;56032;51.324;12.376;2023-02-01T05:21:25;5.00;99.90
15888;DHT22;56032;51.324;12.376;2023-02-01T05:23:54;5.00;99.90
15888;DHT22;56032;51.324;12.376;2023-02-01T05:26:40;5.00;99.90
15888;DHT22;56032;51.324;12.376;2023-02-01T05:29:11;5.00;99.90
15888;DHT22;56032;51.324;12.376;2023-02-01T05:31:40;5.00;99.90
15888;DHT22;56032;51.324;12.376;2023-02-01T05:34:09;5.00;99.90
15888;DHT22;56032;51.324;12.376;2023-02-01T05:36:38;5.00;99.90
15888;DHT22;56032;51.324;12.376;2023-02-01T05:39:07;5.00;99.90
15888;DHT22;56032;51.324;12.376;2023-02-01T05:41:37;5.00;99.90
15888;DHT22;56032;51.324;12.376;2023-02-01T05:44:06;5.00;99.90
15888;DHT22;56032;51.324;12.376;2023-02-01T05:46:36;5.00;99.90
15888;DHT22;56032;51.324;12.376;2023-02-01T05:49:05;4.90;99.90
15888;DHT22;56032;51.324;12.376;2023-02-01T05:51:35;4.90;99.90
15888;DHT22;56032;51.324;12.376;2023-02-01T05:54:03;4.90;99.90
15888;DHT22;56032;51.324;12.376;2023-02-01T05:56:33;4.90;99.90
15888;DHT22;56032;51.324;12.376;2023-02-01T05:59:01;4.80;99.90
15888;DHT22;56032;51.324;12.376;2023-02-01T06:01:30;4.90;99.90
15888;DHT22;56032;51.324;12.376;2023-02-01T06:04:00;4.90;99.90
15888;DHT22;56032;51.324;12.376;2023-02-01T06:06:29;4.90;99.90
15888;DHT22;56032;51.324;12.376;2023-02-01T06:08:57;4.90;99.90
15888;DHT22;56032;51.324;12.376;2023-02-01T06:11:27;4.80;99.90
15888;DHT22;56032;51.324;12.376;2023-02-01T06:13:58;4.80;99.90
15888;DHT22;56032;51.324;12.376;2023-02-01T06:16:27;4.80;99.90
15888;DHT22;56032;51.324;12.376;2023-02-01T06:18:56;4.80;99.90
15888;DHT22;56032;51.324;12.376;2023-02-01T06:21:26;4.80;99.90
15888;DHT22;56032;51.324;12.376;2023-02-01T06:23:55;4.80;99.90
15888;DHT22;56032;51.324;12.376;2023-02-01T06:26:24;4.80;99.90
15888;DHT22;56032;51.324;12.376;2023-02-01T06:28:56;4.90;99.90
15888;DHT22;56032;51.324;12.376;2023-02-01T06:31:25;4.80;99.90
15888;DHT22;56032;51.324;12.376;2023-02-01T06:33:54;4.80;99.90
15888;DHT22;56032;51.324;12.376;2023-02-01T06:36:22;4.80;99.90
15888;DHT22;56032;51.324;12.376;2023-02-01T06:38:52;4.80;99.90
15888;DHT22;56032;51.324;12.376;2023-02-01T06:41:23;4.80;99.90
15888;DHT22;56032;51.324;12.376;2023-02-01T06:43:55;4.80;99.90
15888;DHT22;56032;51.324;12.376;2023-02-01T06:46:27;4.80;99.90
15888;DHT22;56032;51.324;12.376;2023-02-01T06:48:56;4.80;99.90
15888;DHT22;56032;51.324;12.376;2023-02-01T06:51:25;4.80;99.90
15888;DHT22;56032;51.324;12.376;2023-02-01T06:53:55;4.80;99.90
15888;DHT22;56032;51.324;12.376;2023-02-01T06:56:24;4.80;99.90
15888;DHT22;56032;51.324;12.376;2023-02-01T06:58:53;4.90;99.90
15888;DHT22;56032;51.324;12.376;2023-02-01T07:01:21;4.90;99.90
15888;DHT22;56032;51.324;12.376;2023-02-01T07:03:50;4.90;99.90
15888;DHT22;56032;51.324;12.376;2023-02-01T07:06:19;4.90;99.90
15888;DHT22;56032;51.324;12.376;2023-02-01T07:08:48;5.00;99.90
15888;DHT22;56032;51.324;12.376;2023-02-01T07:11:19;5.00;99.90
15888;DHT22;56032;51.324;12.376;2023-02-01T07:13:48;5.00;99.90
15888;DHT22;56032;51.324;12.376;2023-02-01T07:16:17;5.00;99.90
15888;DHT22;56032;51.324;12.376;2023-02-01T07:18:46;5.00;99.90
15888;DHT22;56032;51.324;12.376;2023-02-01T07:21:15;5.00;99.90
15888;DHT22;56032;51.324;12.376;2023-02-01T07:23:44;5.00;99.90
15888;DHT22;56032;51.324;12.376;2023-02-01T07:26:12;5.10;99.90
15888;DHT22;56032;51.324;12.376;2023-02-01T07:28:43;5.10;99.90
15888;DHT22;56032;51.324;12.376;2023-02-01T07:31:13;5.10;99.90
15888;DHT22;56032;51.324;12.376;2023-02-01T07:33:45;5.20;99.90
15888;DHT22;56032;51.324;12.376;2023-02-01T07:36:14;5.20;99.90
15888;DHT22;56032;51.324;12.376;2023-02-01T07:38:43;5.30;99.90
15888;DHT22;56032;51.324;12.376;2023-02-01T07:41:14;5.30;99.90
15888;DHT22;56032;51.324;12.376;2023-02-01T07:43:44;5.40;99.90
15888;DHT22;56032;51.324;12.376;2023-02-01T07:46:13;5.40;99.90
15888;DHT22;56032;51.324;12.376;2023-02-01T07:48:42;5.40;99.90
15888;DHT22;56032;51.324;12.376;2023-02-01T07:51:11;5.40;99.90
15888;DHT22;56032;51.324;12.376;2023-02-01T07:53:40;5.50;99.90
15888;DHT22;56032;51.324;12.376;2023-02-01T07:56:11;5.50;99.90
15888;DHT22;56032;51.324;12.376;2023-02-01T07:58:40;5.50;99.90
15888;DHT22;56032;51.324;12.376;2023-02-01T08:01:15;5.60;99.90
15888;DHT22;56032;51.324;12.376;2023-02-01T08:03:52;5.60;99.90
15888;DHT22;56032;51.324;12.376;2023-02-01T08:06:20;5.60;99.90
15888;DHT22;56032;51.324;12.376;2023-02-01T08:08:48;5.60;99.90
15888;DHT22;56032;51.324;12.376;2023-02-01T08:11:17;5.60;99.90
15888;DHT22;56032;51.324;12.376;2023-02-01T08:13:46;5.60;99.90
15888;DHT22;56032;51.324;12.376;2023-02-01T08:16:16;5.60;99.90
15888;DHT22;56032;51.324;12.376;2023-02-01T08:18:45;5.60;99.90
15888;DHT22;56032;51.324;12.376;2023-02-01T08:21:14;5.60;99.90
15888;DHT22;56032;51.324;12.376;2023-02-01T08:23:42;5.60;99.90
15888;DHT22;56032;51.324;12.376;2023-02-01T08:26:12;5.60;99.90
15888;DHT22;56032;51.324;12.376;2023-02-01T08:28:43;5.60;99.90
15888;DHT22;56032;51.324;12.376;2023-02-01T08:31:12;5.60;99.90
15888;DHT22;56032;51.324;12.376;2023-02-01T08:33:44;5.50;99.90
15888;DHT22;56032;51.324;12.376;2023-02-01T08:36:16;5.50;99.90
15888;DHT22;56032;51.324;12.376;2023-02-01T08:38:45;5.50;99.90
15888;DHT22;56032;51.324;12.376;2023-02-01T08:41:15;5.50;99.90
15888;DHT22;56032;51.324;12.376;2023-02-01T08:43:45;5.40;99.90
15888;DHT22;56032;51.324;12.376;2023-02-01T08:46:14;5.30;99.90
15888;DHT22;56032;51.324;12.376;2023-02-01T08:48:46;5.20;99.90
15888;DHT22;56032;51.324;12.376;2023-02-01T08:51:16;5.10;99.90
15888;DHT22;56032;51.324;12.376;2023-02-01T08:53:45;5.10;99.90
15888;DHT22;56032;51.324;12.376;2023-02-01T08:56:15;5.00;99.90
15888;DHT22;56032;51.324;12.376;2023-02-01T08:58:44;4.90;99.90
15888;DHT22;56032;51.324;12.376;2023-02-01T09:01:13;4.80;99.90
15888;DHT22;56032;51.324;12.376;2023-02-01T09:03:44;4.80;99.90
15888;DHT22;56032;51.324;12.376;2023-02-01T09:06:15;4.70;99.90
15888;DHT22;56032;51.324;12.376;2023-02-01T09:08:44;4.70;99.90
15888;DHT22;56032;51.324;12.376;2023-02-01T09:11:14;4.70;99.90
15888;DHT22;56032;51.324;12.376;2023-02-01T09:13:43;4.70;99.90
15888;DHT22;56032;51.324;12.376;2023-02-01T09:16:12;4.80;99.90
15888;DHT22;56032;51.324;12.376;2023-02-01T09:18:40;4.80;99.90
15888;DHT22;56032;51.324;12.376;2023-02-01T09:21:29;4.80;99.90
15888;DHT22;56032;51.324;12.376;2023-02-01T09:23:57;5.00;99.90
15888;DHT22;56032;51.324;12.376;2023-02-01T09:26:26;4.80;99.90
15888;DHT22;56032;51.324;12.376;2023-02-01T09:28:59;4.90;99.90
15888;DHT22;56032;51.324;12.376;2023-02-01T09:31:28;4.90;99.90
15888;DHT22;56032;51.324;12.376;2023-02-01T09:33:57;4.90;99.90
15888;DHT22;56032;51.324;12.376;2023-02-01T09:36:26;4.90;99.90
15888;DHT22;56032;51.324;12.376;2023-02-01T09:38:58;4.90;99.90
15888;DHT22;56032;51.324;12.376;2023-02-01T09:41:32;5.00;99.90
15888;DHT22;56032;51.324;12.376;2023-02-01T09:44:08;5.00;99.90
15888;DHT22;56032;51.324;12.376;2023-02-01T09:46:42;5.20;99.90
15888;DHT22;56032;51.324;12.376;2023-02-01T09:49:12;5.20;99.90
15888;DHT22;56032;51.324;12.376;2023-02-01T09:51:43;5.40;99.90
15888;DHT22;56032;51.324;12.376;2023-02-01T09:54:15;5.50;99.90
15888;DHT22;56032;51.324;12.376;2023-02-01T09:56:46;5.50;99.90
15888;DHT22;56032;51.324;12.376;2023-02-01T09:59:20;5.60;99.90
15888;DHT22;56032;51.324;12.376;2023-02-01T10:01:52;5.50;99.90
15888;DHT22;56032;51.324;12.376;2023-02-01T10:04:20;5.60;99.90
15888;DHT22;56032;51.324;12.376;2023-02-01T10:06:55;5.70;99.90
15888;DHT22;56032;51.324;12.376;2023-02-01T10:09:37;5.70;99.90
15888;DHT22;56032;51.324;12.376;2023-02-01T10:12:18;5.70;99.90
15888;DHT22;56032;51.324;12.376;2023-02-01T10:14:52;5.80;99.90
15888;DHT22;56032;51.324;12.376;2023-02-01T10:17:28;5.90;99.90
15888;DHT22;56032;51.324;12.376;2023-02-01T10:20:01;5.90;99.90
15888;DHT22;56032;51.324;12.376;2023-02-01T10:22:35;5.90;99.90
15888;DHT22;56032;51.324;12.376;2023-02-01T10:25:29;6.00;99.90
15888;DHT22;56032;51.324;12.376;2023-02-01T10:28:00;6.00;99.90
15888;DHT22;56032;51.324;12.376;2023-02-01T10:30:29;6.00;99.90
15888;DHT22;56032;51.324;12.376;2023-02-01T10:33:04;6.10;99.90
15888;DHT22;56032;51.324;12.376;2023-02-01T10:35:36;6.10;99.90
15888;DHT22;56032;51.324;12.376;2023-02-01T10:38:07;6.20;99.90
15888;DHT22;56032;51.324;12.376;2023-02-01T10:40:42;6.20;99.90
15888;DHT22;56032;51.324;12.376;2023-02-01T10:43:11;6.40;99.90
15888;DHT22;56032;51.324;12.376;2023-02-01T10:45:40;6.60;99.90
15888;DHT22;56032;51.324;12.376;2023-02-01T10:48:09;6.60;99.90
15888;DHT22;56032;51.324;12.376;2023-02-01T10:50:41;6.60;99.90
15888;DHT22;56032;51.324;12.376;2023-02-01T10:53:12;6.60;99.90
15888;DHT22;56032;51.324;12.376;2023-02-01T10:55:47;6.60;99.90
15888;DHT22;56032;51.324;12.376;2023-02-01T10:58:18;6.70;99.90
15888;DHT22;56032;51.324;12.376;2023-02-01T11:00:48;6.80;99.90
15888;DHT22;56032;51.324;12.376;2023-02-01T11:03:31;6.80;99.90
15888;DHT22;56032;51.324;12.376;2023-02-01T11:06:01;7.00;99.90
15888;DHT22;56032;51.324;12.376;2023-02-01T11:08:31;7.20;99.90
15888;DHT22;56032;51.324;12.376;2023-02-01T11:11:05;7.40;99.90
15888;DHT22;56032;51.324;12.376;2023-02-01T11:13:38;7.50;99.90
15888;DHT22;56032;51.324;12.376;2023-02-01T11:16:11;7.60;99.90
15888;DHT22;56032;51.324;12.376;2023-02-01T11:18:40;7.60;99.90
15888;DHT22;56032;51.324;12.376;2023-02-01T11:21:09;7.50;99.90
15888;DHT22;56032;51.324;12.376;2023-02-01T11:23:42;7.40;99.90
15888;DHT22;56032;51.324;12.376;2023-02-01T11:26:14;7.30;99.90
15888;DHT22;56032;51.324;12.376;2023-02-01T11:28:50;7.20;99.90
15888;DHT22;56032;51.324;12.376;2023-02-01T11:31:19;7.10;99.90
15888;DHT22;56032;51.324;12.376;2023-02-01T11:33:49;7.10;99.90
15888;DHT22;56032;51.324;12.376;2023-02-01T11:36:21;7.20;99.90
15888;DHT22;56032;51.324;12.376;2023-02-01T11:38:54;7.30;99.90
15888;DHT22;56032;51.324;12.376;2023-02-01T11:41:42;7.40;99.90
15888;DHT22;56032;51.324;12.376;2023-02-01T11:44:19;7.50;99.90
15888;DHT22;56032;51.324;12.376;2023-02-01T11:46:48;7.60;99.90
15888;DHT22;56032;51.324;12.376;2023-02-01T11:49:21;7.70;99.90
15888;DHT22;56032;51.324;12.376;2023-02-01T11:51:54;7.60;99.90
15888;DHT22;56032;51.324;12.376;2023-02-01T11:54:28;7.60;99.90
15888;DHT22;56032;51.324;12.376;2023-02-01T11:57:04;7.60;99.90
15888;DHT22;56032;51.324;12.376;2023-02-01T11:59:44;7.60;99.90
15888;DHT22;56032;51.324;12.376;2023-02-01T12:05:30;7.60;99.90
15888;DHT22;56032;51.324;12.376;2023-02-01T12:08:10;7.60;99.90
15888;DHT22;56032;51.324;12.376;2023-02-01T12:10:45;7.60;99.90
15888;DHT22;56032;51.324;12.376;2023-02-01T12:13:21;7.50;99.90
15888;DHT22;56032;51.324;12.376;2023-02-01T12:15:56;7.50;99.90
15888;DHT22;56032;51.324;12.376;2023-02-01T12:21:26;7.50;99.90
15888;DHT22;56032;51.324;12.376;2023-02-01T12:24:06;7.60;99.90
15888;DHT22;56032;51.324;12.376;2023-02-01T12:26:50;7.50;99.90
15888;DHT22;56032;51.324;12.376;2023-02-01T12:29:26;7.60;99.90
15888;DHT22;56032;51.324;12.376;2023-02-01T12:32:01;7.60;99.90
15888;DHT22;56032;51.324;12.376;2023-02-01T12:34:40;7.60;99.90
15888;DHT22;56032;51.324;12.376;2023-02-01T12:37:13;7.60;99.90
15888;DHT22;56032;51.324;12.376;2023-02-01T12:39:47;7.60;99.90
15888;DHT22;56032;51.324;12.376;2023-02-01T12:42:19;7.70;99.90
15888;DHT22;56032;51.324;12.376;2023-02-01T12:44:52;7.70;99.90
15888;DHT22;56032;51.324;12.376;2023-02-01T12:47:25;7.70;99.90
15888;DHT22;56032;51.324;12.376;2023-02-01T12:49:55;7.70;99.90
15888;DHT22;56032;51.324;12.376;2023-02-01T12:52:28;7.70;99.90
15888;DHT22;56032;51.324;12.376;2023-02-01T12:55:04;7.70;99.90
15888;DHT22;56032;51.324;12.376;2023-02-01T12:57:35;7.70;99.90
15888;DHT22;56032;51.324;12.376;2023-02-01T13:00:13;7.70;99.90
15888;DHT22;56032;51.324;12.376;2023-02-01T13:02:42;7.70;99.90
15888;DHT22;56032;51.324;12.376;2023-02-01T13:05:14;7.70;99.90
15888;DHT22;56032;51.324;12.376;2023-02-01T13:07:45;7.70;99.90
15888;DHT22;56032;51.324;12.376;2023-02-01T13:10:17;7.70;99.90
15888;DHT22;56032;51.324;12.376;2023-02-01T13:12:49;7.70;99.90
15888;DHT22;56032;51.324;12.376;2023-02-01T13:15:23;7.60;99.90
15888;DHT22;56032;51.324;12.376;2023-02-01T13:17:52;7.60;99.90
15888;DHT22;56032;51.324;12.376;2023-02-01T13:20:24;7.50;99.90
15888;DHT22;56032;51.324;12.376;2023-02-01T13:22:55;7.50;99.90
15888;DHT22;56032;51.324;12.376;2023-02-01T13:25:28;7.50;99.90
15888;DHT22;56032;51.324;12.376;2023-02-01T13:28:00;7.40;99.90
15888;DHT22;56032;51.324;12.376;2023-02-01T13:30:34;7.40;99.90
15888;DHT22;56032;51.324;12.376;2023-02-01T13:33:12;7.40;99.90
15888;DHT22;56032;51.324;12.376;2023-02-01T13:36:09;7.40;99.90
15888;DHT22;56032;51.324;12.376;2023-02-01T13:41:30;7.40;99.90
15888;DHT22;56032;51.324;12.376;2023-02-01T13:44:00;7.40;99.90
15888;DHT22;56032;51.324;12.376;2023-02-01T13:46:31;7.30;99.90
15888;DHT22;56032;51.324;12.376;2023-02-01T13:49:12;7.40;99.90
15888;DHT22;56032;51.324;12.376;2023-02-01T13:51:45;7.50;99.90
15888;DHT22;56032;51.324;12.376;2023-02-01T13:54:24;7.50;99.90
15888;DHT22;56032;51.324;12.376;2023-02-01T13:56:54;7.50;99.90
15888;DHT22;56032;51.324;12.376;2023-02-01T13:59:36;7.50;99.90
15888;DHT22;56032;51.324;12.376;2023-02-01T14:04:56;7.50;99.90
15888;DHT22;56032;51.324;12.376;2023-02-01T14:07:25;7.40;99.90
15888;DHT22;56032;51.324;12.376;2023-02-01T14:09:54;7.30;99.90
15888;DHT22;56032;51.324;12.376;2023-02-01T14:15:17;7.20;99.90
15888;DHT22;56032;51.324;12.376;2023-02-01T14:17:45;7.20;99.90
15888;DHT22;56032;51.324;12.376;2023-02-01T14:20:39;7.20;99.90
15888;DHT22;56032;51.324;12.376;2023-02-01T14:23:11;7.20;99.90
15888;DHT22;56032;51.324;12.376;2023-02-01T14:25:40;7.20;99.90
15888;DHT22;56032;51.324;12.376;2023-02-01T14:28:10;7.20;99.90
15888;DHT22;56032;51.324;12.376;2023-02-01T14:30:41;7.10;99.90
15888;DHT22;56032;51.324;12.376;2023-02-01T14:33:17;7.20;99.90
15888;DHT22;56032;51.324;12.376;2023-02-01T14:35:56;7.20;99.90
15888;DHT22;56032;51.324;12.376;2023-02-01T14:38:27;7.20;99.90
15888;DHT22;56032;51.324;12.376;2023-02-01T14:41:18;7.30;99.90
15888;DHT22;56032;51.324;12.376;2023-02-01T14:49:24;7.30;99.90
15888;DHT22;56032;51.324;12.376;2023-02-01T14:51:59;7.20;99.90
15888;DHT22;56032;51.324;12.376;2023-02-01T14:54:29;7.20;99.90
15888;DHT22;56032;51.324;12.376;2023-02-01T14:56:58;7.20;99.90
15888;DHT22;56032;51.324;12.376;2023-02-01T14:59:27;7.10;99.90
15888;DHT22;56032;51.324;12.376;2023-02-01T15:02:00;7.10;99.90
15888;DHT22;56032;51.324;12.376;2023-02-01T15:04:30;7.10;99.90
15888;DHT22;56032;51.324;12.376;2023-02-01T15:07:11;7.00;99.90
15888;DHT22;56032;51.324;12.376;2023-02-01T15:09:42;7.00;99.90
15888;DHT22;56032;51.324;12.376;2023-02-01T15:12:15;7.00;99.90
15888;DHT22;56032;51.324;12.376;2023-02-01T15:14:45;6.90;99.90
15888;DHT22;56032;51.324;12.376;2023-02-01T15:17:17;6.90;99.90
15888;DHT22;56032;51.324;12.376;2023-02-01T15:20:00;6.80;99.90
15888;DHT22;56032;51.324;12.376;2023-02-01T15:22:32;6.70;99.90
15888;DHT22;56032;51.324;12.376;2023-02-01T15:25:02;6.70;99.90
15888;DHT22;56032;51.324;12.376;2023-02-01T15:27:31;6.60;99.90
15888;DHT22;56032;51.324;12.376;2023-02-01T15:30:05;6.60;99.90
15888;DHT22;56032;51.324;12.376;2023-02-01T15:32:34;6.50;99.90
15888;DHT22;56032;51.324;12.376;2023-02-01T15:35:05;6.50;99.90
15888;DHT22;56032;51.324;12.376;2023-02-01T15:37:36;6.50;99.90
15888;DHT22;56032;51.324;12.376;2023-02-01T15:40:14;6.40;99.90
15888;DHT22;56032;51.324;12.376;2023-02-01T15:42:49;6.40;99.90
15888;DHT22;56032;51.324;12.376;2023-02-01T15:45:19;6.40;99.90
15888;DHT22;56032;51.324;12.376;2023-02-01T15:47:49;6.30;99.90
15888;DHT22;56032;51.324;12.376;2023-02-01T15:50:19;6.30;99.90
15888;DHT22;56032;51.324;12.376;2023-02-01T15:52:52;6.30;99.90
15888;DHT22;56032;51.324;12.376;2023-02-01T15:55:24;6.60;99.90
15888;DHT22;56032;51.324;12.376;2023-02-01T15:57:59;6.40;99.90
15888;DHT22;56032;51.324;12.376;2023-02-01T16:00:29;6.40;99.90
15888;DHT22;56032;51.324;12.376;2023-02-01T16:03:03;6.40;99.90
15888;DHT22;56032;51.324;12.376;2023-02-01T16:05:33;6.40;99.90
15888;DHT22;56032;51.324;12.376;2023-02-01T16:08:06;6.30;99.90
15888;DHT22;56032;51.324;12.376;2023-02-01T16:10:39;6.00;99.90
15888;DHT22;56032;51.324;12.376;2023-02-01T16:13:09;5.00;99.90
15888;DHT22;56032;51.324;12.376;2023-02-01T16:15:38;4.20;99.90
15888;DHT22;56032;51.324;12.376;2023-02-01T16:18:07;3.80;99.90
15888;DHT22;56032;51.324;12.376;2023-02-01T16:20:37;3.60;99.90
15888;DHT22;56032;51.324;12.376;2023-02-01T16:23:08;3.50;99.90